Impacts TAF Board INFO
FOR SITUATIONAL AWARENESS. NOT TO BE USED FOR FLIGHT PLANNING PURPOSES.
IDs:

KDTW - Detroit Metro/Wayne, MI, US

Issued at 2320 UTC 23 Jan 2018
Updated at 0159 UTC 24 Jan 2018
Potential Impact None Slight Moderate High
Time0153Z 24/02Z 24/03Z 24/04Z 24/05Z 24/06Z 24/07Z 24/08Z 24/09Z 24/10Z 24/11Z 24/12Z 24/13Z 24/14Z>>
Type OBS PRVL PRVL PRVL PRVL PRVL PRVL PRVL PRVL PRVL PRVL PRVL PRVL PRVL
VIS 10 >6 >6 >6 >6 >6 >6 >6 >6 >6 >6 >6 >6 >6
CIG 20 24 24 24 24 24 24 28 28 28 28 28 28 28
Cover OVC OVC OVC OVC OVC OVC OVC OVC OVC OVC OVC OVC OVC OVC
FltCat MVFR MVFR MVFR MVFR MVFR MVFR MVFR MVFR MVFR MVFR MVFR MVFR MVFR MVFR
WX -- -- -- -- -- -- -- -- -- -- -- -- -- --
WDir 280 290 290 290 290 290 290 290 290 290 290 290 290 290
WSpd 14 11 11 11 11 11 11 7 7 7 7 7 7 7
WGst -- 20 20 20 20 20 20 -- -- -- -- -- -- --

Raw TAF
KDTW 232320Z 2400/2506 27014G25KT P6SM BKN016 OVC022
  FM240200 29011G20KT P6SM OVC024
  FM240800 29007KT P6SM OVC028
  FM241600 30006KT P6SM BKN040 OVC150
  FM250200 VRB04KT P6SM SCT040 BKN100


Raw METAR
KDTW 240153Z 28014KT 10SM BKN020 OVC025 M01/M04 A2992 RMK AO2 SLP139 T10061044
KDTW 240053Z 28012G22KT 10SM OVC020 M01/M04 A2990 RMK AO2 SLP129 T10061039
KDTW 232353Z 28018G24KT 10SM OVC020 00/M04 A2986 RMK AO2 SLP116 60000 T00001039 10039 20000 51051
KDTW 232253Z 27016G25KT 10SM OVC023 00/M04 A2981 RMK AO2 PK WND 29026/2220 SLP099 T00001039

METAR Board
Radar Display
Forecast Discussion

FOR SITUATIONAL AWARENESS. NOT TO BE USED FOR FLIGHT PLANNING PURPOSES.